Terminal Aerodrome Forecast
Issued by NWS

Home | Current Version | Previous Version | Text Only | Print | Product List | Glossary On
Versions: 1 2 3 4 5 6 7 8 9 10 11 12 13 14 15 16 17 18 19
000
FTUS45 KRIW 050721 AAA
TAFLND
TAF AMD
KLND 050721Z 0507/0606 23008KT P6SM FEW120
      TEMPO 0507/0509 22020G35KT
     FM051600 22017G27KT P6SM FEW080
     FM052200 21024G35KT P6SM VCTS SCT080CB BKN120
     FM060200 28013G25KT P6SM VCSH BKN080=

USA.gov is the U.S. government's official web portal to all federal, state and local government web resources and services.